Flight Track Log - Related Links

Times and Time Zones

All times are in EDT time to prevent confusion due to time zone crossing. See the EJA996 flight status page for this flight to view local times or setup timezone preferences in your user account.

Time Position Orientation Groundspeed Altitude Reporting Facility
EDT Latitude Longitude Course Direction KTS MPH feet Rate Location/Type
Tue 03:48:07 PM 41.1000 -73.7667 304° West 211 243 4,200  Level New York TRACON
Tue 03:49:07 PM 41.1333 -73.8333 304° West 267 307 9,300 3,000 Climbing New York TRACON
Tue 03:50:13 PM 41.2000 -73.8000 21° North 296 341 10,500 1,810 Climbing New York TRACON
Tue 03:51:13 PM 41.2333 -73.6833 69° East 363 418 13,100 2,296 Climbing New York TRACON
Tue 03:52:55 PM 41.2933 -73.4483 71° East 405 466 16,700 1,963 Climbing Boston Center
Tue 03:53:55 PM 41.3383 -73.3000 68° East 424 488 18,400 1,140 Climbing Boston Center
Tue 03:54:56 PM 41.3750 -73.1539 71° East 444 511 19,000 298 Climbing Boston Center
Tue 03:55:56 PM 41.4133 -72.9742 74° East 452 520 19,000  Level Boston Center
Tue 03:56:56 PM 41.4431 -72.8250 75° East 457 526 19,000  Level Boston Center
Tue 03:57:55 PM 41.4792 -72.6506 75° East 451 519 19,000  Level Boston Center
Tue 03:58:55 PM 41.5106 -72.5011 74° East 451 519 19,000  Level Boston Center
Tue 03:59:55 PM 41.5481 -72.3181 75° East 456 525 19,000  Level Boston Center
Tue 04:00:55 PM 41.5789 -72.1681 75° East 456 525 19,000  Level Boston Center
Tue 04:01:55 PM 41.6158 -71.9903 74° East 456 525 19,000  Level Boston Center
Tue 04:02:56 PM 41.6422 -71.8456 76° East 451 519 19,000 -350 Level Boston Center
Tue 04:03:55 PM 41.6786 -71.6647 75° East 451 519 18,300 -1,227 Descending Boston Center
Tue 04:05:08 PM 41.7169 -71.4750 75° East 438 504 16,300 -1,909 Descending Boston Center
Tue 04:06:07 PM 41.7617 -71.3492 64° Northeast 425 489 14,100 -2,450 Descending Boston Center
Tue 04:07:08 PM 41.8353 -71.2308 50° Northeast 387 445 11,400 -2,083 Descending Boston Center
Tue 04:08:08 PM 41.8928 -71.1489 47° Northeast 343 395 9,900 -1,758 Descending Boston Center
Tue 04:08:47 PM 41.9333 -71.0833 50° Northeast 294 338 8,500 -1,907 Descending KA90
Tue 04:09:55 PM 42.0000 -71.0000 43° Northeast 282 325 6,500 -1,171 Descending KA90
Tue 04:10:50 PM 42.0500 -70.9500 37° Northeast 271 312 6,100 -887 Descending KA90
Tue 04:11:50 PM 42.1333 -70.9500 360° North 259 298 4,800 -1,600 Descending KA90
Tue 04:12:50 PM 42.2000 -70.9333 10° North 256 295 2,900 -1,627 Descending KA90
Tue 04:13:48 PM 42.2667 -70.9333 360° North 241 277 1,600 -958 Descending KA90
Tue 04:14:49 PM 42.3167 -70.9500 346° North 162 186 1,000 -590 Descending KA90

Login

Don't have an account? Register now (free) for customized features, flight alerts, and more!